createdAt,value
2022-09-11T00:01:32.379Z,15.20
2022-09-11T00:03:35.172Z,15.20
2022-09-11T00:05:40.750Z,15.10
2022-09-11T00:07:43.417Z,15.10
2022-09-11T00:09:46.241Z,15.10
2022-09-11T00:11:50.290Z,15.00
2022-09-11T00:13:54.207Z,15.00
2022-09-11T00:15:56.932Z,15.10
2022-09-11T00:17:59.603Z,15.10
2022-09-11T00:20:02.809Z,15.00
2022-09-11T00:22:05.879Z,14.90
2022-09-11T00:24:09.899Z,14.90
2022-09-11T00:26:12.677Z,15.00
2022-09-11T00:28:17.760Z,14.90
2022-09-11T00:30:20.446Z,15.00
2022-09-11T00:32:23.908Z,14.90
2022-09-11T00:34:26.591Z,14.90
2022-09-11T00:36:31.380Z,14.80
2022-09-11T00:38:35.162Z,14.90
2022-09-11T00:40:45.824Z,14.90
2022-09-11T00:42:53.418Z,14.80
2022-09-11T00:45:02.403Z,14.80
2022-09-11T00:47:09.000Z,14.90
2022-09-11T00:49:17.690Z,14.90
2022-09-11T00:51:21.908Z,14.90
2022-09-11T00:53:24.880Z,15.00
2022-09-11T00:55:28.502Z,15.00
2022-09-11T00:57:33.150Z,15.00
2022-09-11T00:59:35.851Z,15.00
2022-09-11T01:01:39.867Z,15.10
2022-09-11T01:03:43.199Z,15.10
2022-09-11T01:05:45.977Z,15.10
2022-09-11T01:07:48.703Z,15.10
2022-09-11T01:09:51.387Z,15.20
2022-09-11T01:11:56.983Z,15.20
2022-09-11T01:14:03.415Z,15.20
2022-09-11T01:16:10.828Z,15.30
2022-09-11T01:18:16.129Z,15.30
2022-09-11T01:20:33.169Z,15.30
2022-09-11T01:23:12.235Z,15.30
2022-09-11T01:25:21.452Z,15.30
2022-09-11T01:27:41.975Z,15.30
2022-09-11T01:29:45.971Z,15.30
2022-09-11T01:31:53.511Z,15.30
2022-09-11T01:33:57.838Z,15.40
2022-09-11T01:36:03.747Z,15.40
2022-09-11T01:38:07.926Z,15.40
2022-09-11T01:40:14.180Z,15.40
2022-09-11T01:42:18.604Z,15.40
2022-09-11T01:44:24.044Z,15.40
2022-09-11T01:46:27.713Z,15.40
2022-09-11T01:48:32.887Z,15.40
2022-09-11T01:50:35.851Z,15.50
2022-09-11T01:52:43.059Z,15.50
2022-09-11T01:54:47.083Z,15.50
2022-09-11T01:56:51.526Z,15.50
2022-09-11T01:58:56.770Z,15.50
2022-09-11T02:01:04.901Z,15.50
2022-09-11T02:03:10.184Z,15.50
2022-09-11T02:05:15.823Z,15.50
2022-09-11T02:07:20.225Z,15.50
2022-09-11T02:09:23.953Z,15.40
2022-09-11T02:11:28.436Z,15.40
2022-09-11T02:13:32.332Z,15.40
2022-09-11T02:15:38.759Z,15.40
2022-09-11T02:17:48.107Z,15.40
2022-09-11T02:19:50.792Z,15.30
2022-09-11T02:21:53.454Z,15.40
2022-09-11T02:23:56.415Z,15.30
2022-09-11T02:25:59.098Z,15.40
2022-09-11T02:28:01.766Z,15.40
2022-09-11T02:30:04.707Z,15.40
2022-09-11T02:32:10.785Z,15.50
2022-09-11T02:34:14.816Z,15.40
2022-09-11T02:36:26.309Z,15.30
2022-09-11T02:38:30.066Z,15.40
2022-09-11T02:40:38.915Z,15.40
2022-09-11T02:42:46.964Z,15.30
2022-09-11T02:44:52.998Z,15.30
2022-09-11T02:47:06.993Z,15.30
2022-09-11T02:49:12.487Z,15.30
2022-09-11T02:51:21.651Z,15.30
2022-09-11T02:53:29.018Z,15.30
2022-09-11T02:55:35.837Z,15.30
2022-09-11T02:57:40.449Z,15.30
2022-09-11T02:59:44.560Z,15.30
2022-09-11T03:01:51.794Z,15.30
2022-09-11T03:03:54.537Z,15.30
2022-09-11T03:05:57.230Z,15.30
2022-09-11T03:08:04.350Z,15.30
2022-09-11T03:10:11.146Z,15.30
2022-09-11T03:12:13.823Z,15.30
2022-09-11T03:14:17.174Z,15.30
2022-09-11T03:16:20.216Z,15.30
2022-09-11T03:18:23.123Z,15.30
2022-09-11T03:20:25.805Z,15.30
2022-09-11T03:22:28.506Z,15.30
2022-09-11T03:24:32.529Z,15.30
2022-09-11T03:26:35.752Z,15.30
2022-09-11T03:28:39.803Z,15.30
2022-09-11T03:30:42.486Z,15.30
2022-09-11T03:32:45.158Z,15.30
2022-09-11T03:34:47.961Z,15.30
2022-09-11T03:36:51.661Z,15.40
2022-09-11T03:38:55.103Z,15.30
2022-09-11T03:40:59.172Z,15.30
2022-09-11T03:43:02.734Z,15.30
2022-09-11T03:45:06.098Z,15.30
2022-09-11T03:47:08.771Z,15.30
2022-09-11T03:49:11.487Z,15.30
2022-09-11T03:51:14.740Z,15.30
2022-09-11T03:53:17.401Z,15.30
2022-09-11T03:55:20.084Z,15.30
2022-09-11T03:57:24.094Z,15.30
2022-09-11T03:59:26.795Z,15.30
2022-09-11T04:01:29.587Z,15.20
2022-09-11T04:03:32.266Z,15.20
2022-09-11T04:05:34.965Z,15.30
2022-09-11T04:07:38.509Z,15.30
2022-09-11T04:09:41.189Z,15.30
2022-09-11T04:11:43.904Z,15.30
2022-09-11T04:13:47.921Z,15.30
2022-09-11T04:15:50.622Z,15.30
2022-09-11T04:17:53.555Z,15.30
2022-09-11T04:19:56.276Z,15.30
2022-09-11T04:21:58.948Z,15.30
2022-09-11T04:24:01.748Z,15.30
2022-09-11T04:26:04.640Z,15.20
2022-09-11T04:28:07.307Z,15.20
2022-09-11T04:30:12.436Z,15.20
2022-09-11T04:32:15.118Z,15.20
2022-09-11T04:34:17.964Z,15.20
2022-09-11T04:36:21.160Z,15.20
2022-09-11T04:38:24.009Z,15.10
2022-09-11T04:40:26.682Z,15.10
2022-09-11T04:42:29.349Z,15.10
2022-09-11T04:44:32.596Z,15.10
2022-09-11T04:46:36.605Z,15.10
2022-09-11T04:48:44.445Z,15.00
2022-09-11T04:50:48.163Z,15.00
2022-09-11T04:52:51.276Z,15.10
2022-09-11T04:54:54.074Z,15.10
2022-09-11T04:56:57.692Z,15.10
2022-09-11T04:59:01.891Z,15.10
2022-09-11T05:01:07.547Z,15.10
2022-09-11T05:03:11.660Z,15.10
2022-09-11T05:05:14.382Z,15.10
2022-09-11T05:07:17.048Z,15.10
2022-09-11T05:09:19.780Z,15.00
2022-09-11T05:11:22.452Z,15.00
2022-09-11T05:13:25.137Z,15.00
2022-09-11T05:15:28.149Z,15.00
2022-09-11T05:17:30.815Z,15.00
2022-09-11T05:19:34.853Z,15.00
2022-09-11T05:21:37.572Z,15.00
2022-09-11T05:23:40.479Z,15.00
2022-09-11T05:25:43.151Z,15.00
2022-09-11T05:27:45.824Z,15.00
2022-09-11T05:29:48.504Z,15.00
2022-09-11T05:31:53.055Z,15.00
2022-09-11T05:33:56.524Z,15.00
2022-09-11T05:36:05.457Z,15.00
2022-09-11T05:38:10.791Z,15.00
2022-09-11T05:40:13.559Z,15.00
2022-09-11T05:42:16.251Z,15.10
2022-09-11T05:44:18.991Z,15.10
2022-09-11T05:46:21.927Z,15.10
2022-09-11T05:48:24.746Z,15.10
2022-09-11T05:50:27.413Z,15.20
2022-09-11T05:52:32.008Z,15.20
2022-09-11T05:54:34.949Z,15.20
2022-09-11T05:56:37.621Z,15.20
2022-09-11T05:58:40.298Z,15.20
2022-09-11T06:00:46.509Z,15.20
2022-09-11T06:02:49.509Z,15.20
2022-09-11T06:04:52.243Z,15.30
2022-09-11T06:06:54.907Z,15.30
2022-09-11T06:08:59.627Z,15.30
2022-09-11T06:11:02.859Z,15.30
2022-09-11T06:13:05.511Z,15.30
2022-09-11T06:15:20.297Z,15.30
2022-09-11T06:17:32.386Z,15.30
2022-09-11T06:19:35.077Z,15.40
2022-09-11T06:21:37.748Z,15.40
2022-09-11T06:23:40.622Z,15.40
2022-09-11T06:25:44.887Z,15.40
2022-09-11T06:27:47.771Z,15.40
2022-09-11T06:29:50.723Z,15.40
2022-09-11T06:31:54.172Z,15.50
2022-09-11T06:33:57.023Z,15.50
2022-09-11T06:35:59.875Z,15.50
2022-09-11T06:38:02.753Z,15.50
2022-09-11T06:40:06.377Z,15.60
2022-09-11T06:42:10.625Z,15.60
2022-09-11T06:44:14.650Z,15.60
2022-09-11T06:46:19.025Z,15.60
2022-09-11T06:48:21.701Z,15.50
2022-09-11T06:50:24.788Z,15.60
2022-09-11T06:52:28.061Z,15.60
2022-09-11T06:54:30.773Z,15.60
2022-09-11T06:56:33.478Z,15.60
2022-09-11T06:58:39.557Z,15.70
2022-09-11T07:00:42.252Z,15.70
2022-09-11T07:02:45.155Z,15.70
2022-09-11T07:04:48.152Z,15.70
2022-09-11T07:06:50.996Z,15.70
2022-09-11T07:08:54.627Z,15.70
2022-09-11T07:11:03.485Z,15.70
2022-09-11T07:13:06.157Z,15.80
2022-09-11T07:15:11.417Z,15.80
2022-09-11T07:17:14.086Z,15.80
2022-09-11T07:19:18.676Z,15.70
2022-09-11T07:21:22.183Z,15.80
2022-09-11T07:23:24.929Z,15.80
2022-09-11T07:25:27.807Z,15.80
2022-09-11T07:27:31.359Z,15.90
2022-09-11T07:29:34.432Z,15.90
2022-09-11T07:31:39.110Z,15.90
2022-09-11T07:33:43.074Z,16.00
2022-09-11T07:35:46.178Z,16.00
2022-09-11T07:37:50.930Z,16.00
2022-09-11T07:39:53.791Z,16.10
2022-09-11T07:41:56.505Z,16.10
2022-09-11T07:44:00.696Z,16.10
2022-09-11T07:46:03.431Z,16.10
2022-09-11T07:48:07.807Z,16.10
2022-09-11T07:50:11.107Z,16.20
2022-09-11T07:52:16.864Z,16.30
2022-09-11T07:54:19.764Z,16.30
2022-09-11T07:56:23.984Z,16.40
2022-09-11T07:58:27.645Z,16.50
2022-09-11T08:00:34.080Z,16.60
2022-09-11T08:02:39.698Z,16.50
2022-09-11T08:04:43.719Z,16.70
2022-09-11T08:06:46.838Z,16.70
2022-09-11T08:08:53.057Z,16.80
2022-09-11T08:10:56.263Z,16.80
2022-09-11T08:13:00.230Z,17.00
2022-09-11T08:15:03.126Z,17.10
2022-09-11T08:17:05.902Z,17.20
2022-09-11T08:19:08.909Z,17.20
2022-09-11T08:21:13.297Z,17.30
2022-09-11T08:23:16.413Z,17.30
2022-09-11T08:25:19.137Z,17.30
2022-09-11T08:27:21.812Z,17.30
2022-09-11T08:29:25.707Z,17.30
2022-09-11T08:31:28.626Z,17.30
2022-09-11T08:33:31.709Z,17.30
2022-09-11T08:35:35.483Z,17.20
2022-09-11T08:37:40.079Z,17.20
2022-09-11T08:39:42.800Z,17.20
2022-09-11T08:41:48.151Z,17.20
2022-09-11T08:43:52.071Z,17.20
2022-09-11T08:45:56.280Z,17.20
2022-09-11T08:47:59.045Z,17.20
2022-09-11T08:50:04.406Z,17.40
2022-09-11T08:52:07.102Z,17.40
2022-09-11T08:54:13.216Z,17.60
2022-09-11T08:56:18.260Z,17.60
2022-09-11T08:58:24.492Z,17.60
2022-09-11T09:00:30.239Z,17.70
2022-09-11T09:02:58.132Z,17.80
2022-09-11T09:05:09.451Z,17.70
2022-09-11T09:07:17.404Z,17.80
2022-09-11T09:09:24.949Z,17.80
2022-09-11T09:11:31.082Z,17.80
2022-09-11T09:13:58.109Z,17.90
2022-09-11T09:16:04.249Z,17.90
2022-09-11T09:18:09.877Z,18.00
2022-09-11T09:20:14.254Z,18.00
2022-09-11T09:22:18.950Z,18.10
2022-09-11T09:24:23.185Z,18.10
2022-09-11T09:26:34.216Z,18.10
2022-09-11T09:28:43.273Z,18.10
2022-09-11T09:30:47.972Z,18.10
2022-09-11T09:32:53.067Z,18.10
2022-09-11T09:34:57.588Z,18.00
2022-09-11T09:37:01.834Z,17.90
2022-09-11T09:39:10.179Z,18.00
2022-09-11T09:41:36.297Z,18.00
2022-09-11T09:43:44.263Z,18.00
2022-09-11T09:45:52.916Z,18.00
2022-09-11T09:47:55.592Z,18.10
2022-09-11T09:49:58.866Z,18.10
2022-09-11T09:52:06.658Z,18.10
2022-09-11T09:54:09.429Z,18.20
2022-09-11T09:56:12.985Z,18.30
2022-09-11T09:58:17.008Z,18.40
2022-09-11T10:00:21.166Z,18.40
2022-09-11T10:02:39.029Z,18.40
2022-09-11T10:04:41.797Z,18.50
2022-09-11T10:06:45.881Z,18.60
2022-09-11T10:08:48.569Z,18.70
2022-09-11T10:10:57.137Z,18.80
2022-09-11T10:13:19.133Z,18.90
2022-09-11T10:15:24.049Z,19.00
2022-09-11T10:17:32.369Z,18.90
2022-09-11T10:19:40.485Z,19.00
2022-09-11T10:21:43.162Z,18.90
2022-09-11T10:23:46.706Z,19.00
2022-09-11T10:25:49.875Z,19.00
2022-09-11T10:28:03.944Z,19.10
2022-09-11T10:30:12.644Z,19.10
2022-09-11T10:32:17.189Z,19.20
2022-09-11T10:34:20.855Z,19.20
2022-09-11T10:36:24.649Z,19.20
2022-09-11T10:38:30.957Z,19.40
2022-09-11T10:40:33.688Z,19.50
2022-09-11T10:42:37.790Z,19.50
2022-09-11T10:44:42.309Z,19.50
2022-09-11T10:46:45.959Z,19.40
2022-09-11T10:48:55.173Z,19.40
2022-09-11T10:51:07.162Z,19.30
2022-09-11T10:53:16.308Z,19.20
2022-09-11T10:55:19.295Z,19.30
2022-09-11T10:57:23.882Z,19.20
2022-09-11T10:59:31.080Z,19.20
2022-09-11T11:01:33.985Z,19.30
2022-09-11T11:03:36.765Z,19.40
2022-09-11T11:05:47.861Z,19.50
2022-09-11T11:07:59.796Z,19.50
2022-09-11T11:10:07.439Z,19.50
2022-09-11T11:12:18.508Z,19.50
2022-09-11T11:14:28.181Z,19.40
2022-09-11T11:16:34.564Z,19.40
2022-09-11T11:18:52.093Z,19.30
2022-09-11T11:21:00.077Z,19.40
2022-09-11T11:23:26.609Z,19.60
2022-09-11T11:25:31.063Z,19.70
2022-09-11T11:27:53.247Z,19.80
2022-09-11T11:30:04.684Z,19.90
2022-09-11T11:32:14.840Z,19.90
2022-09-11T11:34:34.567Z,19.90
2022-09-11T11:36:41.405Z,19.90
2022-09-11T11:38:45.726Z,19.80
2022-09-11T11:40:49.593Z,20.10
2022-09-11T11:42:56.400Z,21.20
2022-09-11T11:45:03.835Z,22.10
2022-09-11T11:47:09.729Z,23.30
2022-09-11T11:49:13.708Z,23.20
2022-09-11T11:51:18.990Z,23.00
2022-09-11T11:53:25.154Z,22.90
2022-09-11T11:55:28.863Z,23.40
2022-09-11T11:57:33.808Z,23.40
2022-09-11T11:59:40.096Z,23.10
2022-09-11T12:01:44.993Z,22.60
2022-09-11T12:03:50.369Z,22.40
2022-09-11T12:05:54.398Z,22.20
2022-09-11T12:07:57.072Z,22.10
2022-09-11T12:10:02.544Z,21.90
2022-09-11T12:12:06.758Z,22.00
2022-09-11T12:14:20.766Z,21.80
2022-09-11T12:16:27.873Z,21.70
2022-09-11T12:18:30.589Z,21.70
2022-09-11T12:20:39.069Z,21.60
2022-09-11T12:22:42.287Z,21.50
2022-09-11T12:24:58.538Z,21.20
2022-09-11T12:27:53.794Z,20.90
2022-09-11T12:29:56.936Z,20.40
2022-09-11T12:32:29.013Z,20.10
2022-09-11T12:34:58.063Z,19.90
2022-09-11T12:37:01.274Z,19.60
2022-09-11T12:39:06.847Z,19.50
2022-09-11T12:41:13.049Z,19.30
2022-09-11T12:43:44.331Z,19.30
2022-09-11T12:45:48.399Z,19.10
2022-09-11T12:47:51.167Z,19.00
2022-09-11T12:49:55.601Z,19.00
2022-09-11T12:51:59.707Z,18.90
2022-09-11T12:54:03.840Z,18.80
2022-09-11T12:56:07.296Z,18.80
2022-09-11T12:58:25.384Z,18.90
2022-09-11T13:00:35.311Z,18.90
2022-09-11T13:02:38.856Z,19.80
2022-09-11T13:04:42.836Z,19.80
2022-09-11T13:06:47.457Z,19.60
2022-09-11T13:08:51.291Z,19.60
2022-09-11T13:10:54.052Z,19.50
2022-09-11T13:13:02.504Z,19.40
2022-09-11T13:15:05.798Z,19.30
2022-09-11T13:17:14.700Z,19.30
2022-09-11T13:19:19.396Z,19.40
2022-09-11T13:21:26.228Z,19.50
2022-09-11T13:23:29.489Z,20.20
2022-09-11T13:25:32.177Z,20.30
2022-09-11T13:27:37.472Z,20.30
2022-09-11T13:29:40.198Z,20.20
2022-09-11T13:31:42.894Z,20.20
2022-09-11T13:33:50.469Z,20.10
2022-09-11T13:35:54.229Z,20.10
2022-09-11T13:37:58.089Z,20.10
2022-09-11T13:40:00.878Z,20.30
2022-09-11T13:42:03.644Z,20.50
2022-09-11T13:44:10.137Z,20.30
2022-09-11T13:46:23.679Z,21.10
2022-09-11T13:48:27.333Z,22.00
2022-09-11T13:50:31.383Z,22.10
2022-09-11T13:52:35.043Z,22.00
2022-09-11T13:54:38.671Z,21.80
2022-09-11T13:56:48.392Z,21.90
2022-09-11T13:58:53.603Z,21.70
2022-09-11T14:00:56.421Z,21.80
2022-09-11T14:03:00.263Z,21.60
2022-09-11T14:05:09.674Z,21.50
2022-09-11T14:07:20.757Z,21.50
2022-09-11T14:09:23.449Z,21.90
2022-09-11T14:11:27.320Z,22.70
2022-09-11T14:13:32.920Z,22.70
2022-09-11T14:15:39.867Z,22.90
2022-09-11T14:17:43.001Z,23.50
2022-09-11T14:19:45.833Z,23.30
2022-09-11T14:21:49.486Z,23.10
2022-09-11T14:23:54.502Z,22.90
2022-09-11T14:26:16.031Z,22.70
2022-09-11T14:28:35.217Z,22.40
2022-09-11T14:30:38.287Z,22.10
2022-09-11T14:32:40.959Z,22.00
2022-09-11T14:34:43.638Z,21.70
2022-09-11T14:36:52.661Z,21.60
2022-09-11T14:38:56.678Z,21.40
2022-09-11T14:41:00.064Z,21.30
2022-09-11T14:43:03.330Z,21.20
2022-09-11T14:45:08.978Z,21.10
2022-09-11T14:47:13.658Z,21.00
2022-09-11T14:49:16.807Z,20.90
2022-09-11T14:51:20.704Z,21.30
2022-09-11T14:53:28.648Z,21.70
2022-09-11T14:55:33.824Z,21.90
2022-09-11T14:57:36.503Z,22.10
2022-09-11T14:59:39.163Z,22.10
2022-09-11T15:01:42.177Z,22.10
2022-09-11T15:03:45.063Z,22.00
2022-09-11T15:05:48.177Z,21.70
2022-09-11T15:07:52.817Z,21.50
2022-09-11T15:09:55.770Z,21.60
2022-09-11T15:12:00.133Z,21.20
2022-09-11T15:14:20.389Z,21.40
2022-09-11T15:16:25.497Z,20.80
2022-09-11T15:18:28.464Z,20.80
2022-09-11T15:20:31.124Z,20.70
2022-09-11T15:22:34.753Z,20.50
2022-09-11T15:24:37.415Z,20.40
2022-09-11T15:26:40.101Z,20.10
2022-09-11T15:28:44.113Z,20.10
2022-09-11T15:30:46.860Z,20.00
2022-09-11T15:32:50.148Z,19.90
2022-09-11T15:34:54.764Z,19.80
2022-09-11T15:36:57.789Z,19.80
2022-09-11T15:39:00.465Z,19.70
2022-09-11T15:41:03.932Z,19.70
2022-09-11T15:43:06.664Z,19.70
2022-09-11T15:45:13.237Z,19.70
2022-09-11T15:47:16.511Z,19.70
2022-09-11T15:49:20.905Z,19.80
2022-09-11T15:51:24.573Z,19.80
2022-09-11T15:53:27.808Z,19.90
2022-09-11T15:55:31.019Z,19.90
2022-09-11T15:57:34.523Z,19.90
2022-09-11T15:59:37.251Z,20.00
2022-09-11T16:01:41.357Z,20.00
2022-09-11T16:03:44.268Z,19.90
2022-09-11T16:05:47.280Z,19.80
2022-09-11T16:07:50.021Z,19.70
2022-09-11T16:09:52.707Z,19.60
2022-09-11T16:11:55.843Z,19.50
2022-09-11T16:13:58.689Z,19.40
2022-09-11T16:16:05.354Z,19.40
2022-09-11T16:18:10.041Z,19.30
2022-09-11T16:20:15.224Z,19.20
2022-09-11T16:22:17.938Z,19.10
2022-09-11T16:24:20.622Z,19.10
2022-09-11T16:26:25.010Z,19.00
2022-09-11T16:28:27.693Z,18.90
2022-09-11T16:30:43.210Z,18.90
2022-09-11T16:32:48.548Z,18.80
2022-09-11T16:34:52.569Z,18.70
2022-09-11T16:36:55.371Z,18.70
2022-09-11T16:38:58.072Z,18.60
2022-09-11T16:41:03.729Z,18.60
2022-09-11T16:43:06.419Z,18.50
2022-09-11T16:45:09.784Z,18.50
2022-09-11T16:47:12.481Z,18.40
2022-09-11T16:49:16.739Z,18.40
2022-09-11T16:51:20.919Z,18.40
2022-09-11T16:53:23.689Z,18.50
2022-09-11T16:55:26.708Z,18.40
2022-09-11T16:57:29.449Z,18.40
2022-09-11T16:59:32.130Z,18.30
2022-09-11T17:01:34.891Z,18.30
2022-09-11T17:03:41.377Z,18.30
2022-09-11T17:05:47.925Z,18.30
2022-09-11T17:07:51.948Z,18.30
2022-09-11T17:09:54.947Z,18.30
2022-09-11T17:11:58.152Z,18.30
2022-09-11T17:14:01.727Z,18.30
2022-09-11T17:16:05.011Z,18.30
2022-09-11T17:18:07.747Z,18.20
2022-09-11T17:20:11.685Z,18.20
2022-09-11T17:22:15.141Z,18.10
2022-09-11T17:24:21.585Z,18.10
2022-09-11T17:26:24.613Z,18.00
2022-09-11T17:28:27.500Z,17.90
2022-09-11T17:30:30.180Z,17.90
2022-09-11T17:32:32.898Z,17.80
2022-09-11T17:34:35.576Z,17.80
2022-09-11T17:36:38.678Z,17.70
2022-09-11T17:38:41.665Z,17.70
2022-09-11T17:40:46.147Z,17.70
2022-09-11T17:42:48.903Z,17.60
2022-09-11T17:44:51.586Z,17.50
2022-09-11T17:46:56.624Z,17.40
2022-09-11T17:48:59.955Z,17.40
2022-09-11T17:51:03.332Z,17.30
2022-09-11T17:53:06.084Z,17.30
2022-09-11T17:55:11.001Z,17.30
2022-09-11T17:57:15.932Z,17.20
2022-09-11T17:59:18.641Z,17.20
2022-09-11T18:01:21.451Z,17.20
2022-09-11T18:03:24.161Z,17.10
2022-09-11T18:05:28.725Z,17.00
2022-09-11T18:07:31.961Z,17.00
2022-09-11T18:09:34.633Z,17.00
2022-09-11T18:11:37.320Z,16.90
2022-09-11T18:13:42.645Z,16.90
2022-09-11T18:15:45.624Z,16.80
2022-09-11T18:17:48.607Z,16.80
2022-09-11T18:19:51.321Z,16.70
2022-09-11T18:21:54.057Z,16.70
2022-09-11T18:23:56.733Z,16.70
2022-09-11T18:26:00.217Z,16.70
2022-09-11T18:28:03.631Z,16.70
2022-09-11T18:30:09.827Z,16.70
2022-09-11T18:32:12.586Z,16.60
2022-09-11T18:34:16.635Z,16.60
2022-09-11T18:36:20.764Z,16.50
2022-09-11T18:38:27.073Z,16.60
2022-09-11T18:40:31.544Z,16.50
2022-09-11T18:42:34.231Z,16.50
2022-09-11T18:44:36.901Z,16.50
2022-09-11T18:46:41.130Z,16.50
2022-09-11T18:48:44.297Z,16.40
2022-09-11T18:50:47.073Z,16.40
2022-09-11T18:52:51.341Z,16.30
2022-09-11T18:54:54.076Z,16.30
2022-09-11T18:56:57.718Z,16.20
2022-09-11T18:59:01.151Z,16.20
2022-09-11T19:01:06.804Z,16.20
2022-09-11T19:03:11.133Z,16.10
2022-09-11T19:05:15.376Z,16.00
2022-09-11T19:07:18.069Z,16.00
2022-09-11T19:09:20.750Z,16.00
2022-09-11T19:11:24.526Z,16.00
2022-09-11T19:13:28.105Z,16.00
2022-09-11T19:15:31.512Z,15.90
2022-09-11T19:17:34.231Z,15.90
2022-09-11T19:19:38.233Z,15.80
2022-09-11T19:21:41.420Z,15.80
2022-09-11T19:23:45.078Z,15.80
2022-09-11T19:25:47.872Z,15.70
2022-09-11T19:27:50.555Z,15.70
2022-09-11T19:29:54.795Z,15.70
2022-09-11T19:31:57.474Z,15.70
2022-09-11T19:34:01.768Z,15.70
2022-09-11T19:36:09.223Z,15.70
2022-09-11T19:38:12.123Z,15.70
2022-09-11T19:40:14.919Z,15.70
2022-09-11T19:42:17.682Z,15.60
2022-09-11T19:44:20.980Z,15.60
2022-09-11T19:46:24.998Z,15.60
2022-09-11T19:48:27.695Z,15.50
2022-09-11T19:50:35.598Z,15.50
2022-09-11T19:52:39.625Z,15.50
2022-09-11T19:54:42.406Z,15.50
2022-09-11T19:56:45.285Z,15.50
2022-09-11T19:58:47.960Z,15.40
2022-09-11T20:00:50.676Z,15.40
2022-09-11T20:02:53.355Z,15.40
2022-09-11T20:04:56.026Z,15.40
2022-09-11T20:06:59.779Z,15.30
2022-09-11T20:11:27.589Z,15.30
2022-09-11T20:13:30.810Z,15.20
2022-09-11T20:15:35.985Z,15.20
2022-09-11T20:17:41.026Z,15.20
2022-09-11T20:19:44.696Z,15.10
2022-09-11T20:21:47.381Z,15.10
2022-09-11T20:23:53.717Z,15.10
2022-09-11T20:26:07.470Z,15.10
2022-09-11T20:28:13.552Z,15.10
2022-09-11T20:30:16.255Z,15.10
2022-09-11T20:32:19.656Z,15.10
2022-09-11T20:34:25.624Z,15.10
2022-09-11T20:36:29.962Z,15.00
2022-09-11T20:38:32.689Z,15.00
2022-09-11T20:40:37.958Z,15.00
2022-09-11T20:42:42.011Z,15.00
2022-09-11T20:44:45.328Z,14.90
2022-09-11T20:46:48.193Z,14.90
2022-09-11T20:48:51.222Z,14.90
2022-09-11T20:50:54.049Z,14.80
2022-09-11T20:52:56.736Z,14.80
2022-09-11T20:55:00.639Z,14.80
2022-09-11T20:57:03.485Z,14.80
2022-09-11T20:59:07.498Z,14.80
2022-09-11T21:01:12.876Z,14.80
2022-09-11T21:03:15.583Z,14.80
2022-09-11T21:05:18.328Z,14.80
2022-09-11T21:07:21.011Z,14.70
2022-09-11T21:09:25.322Z,14.70
2022-09-11T21:11:28.897Z,14.70
2022-09-11T21:13:31.622Z,14.60
2022-09-11T21:15:35.629Z,14.70
2022-09-11T21:17:38.311Z,14.70
2022-09-11T21:19:40.979Z,14.70
2022-09-11T21:21:43.672Z,14.60
2022-09-11T21:23:46.466Z,14.50
2022-09-11T21:25:52.554Z,14.50
2022-09-11T21:27:55.871Z,14.50
2022-09-11T21:29:58.571Z,14.50
2022-09-11T21:32:02.912Z,14.40
2022-09-11T21:34:05.717Z,14.40
2022-09-11T21:36:08.497Z,14.40
2022-09-11T21:38:11.185Z,14.40
2022-09-11T21:40:13.947Z,14.40
2022-09-11T21:42:16.677Z,14.40
2022-09-11T21:44:19.357Z,14.40
2022-09-11T21:46:22.079Z,14.40
2022-09-11T21:48:26.141Z,14.40
2022-09-11T21:50:29.136Z,14.40
2022-09-11T21:52:31.833Z,14.30
2022-09-11T21:54:34.641Z,14.30
2022-09-11T21:56:37.313Z,14.20
2022-09-11T21:58:40.002Z,14.10
2022-09-11T22:00:43.421Z,14.10
2022-09-11T22:02:46.273Z,14.10
2022-09-11T22:04:50.473Z,14.10
2022-09-11T22:06:54.559Z,14.10
2022-09-11T22:08:57.431Z,14.10
2022-09-11T22:11:01.863Z,14.10
2022-09-11T22:13:04.541Z,14.10
2022-09-11T22:15:08.221Z,14.10
2022-09-11T22:17:11.117Z,14.10
2022-09-11T22:19:13.840Z,14.10
2022-09-11T22:21:17.857Z,14.00
2022-09-11T22:23:21.856Z,14.00
2022-09-11T22:25:24.548Z,13.90
2022-09-11T22:27:27.299Z,13.90
2022-09-11T22:29:29.974Z,13.90
2022-09-11T22:31:32.820Z,13.80
2022-09-11T22:33:37.403Z,13.70
2022-09-11T22:35:40.062Z,13.70
2022-09-11T22:37:44.087Z,13.70
2022-09-11T22:39:46.965Z,13.60
2022-09-11T22:41:49.701Z,13.70
2022-09-11T22:43:52.418Z,13.70
2022-09-11T22:45:55.146Z,13.70
2022-09-11T22:47:58.744Z,13.70
2022-09-11T22:50:01.427Z,13.70
2022-09-11T22:52:04.103Z,13.70
2022-09-11T22:54:08.172Z,13.70
2022-09-11T22:56:11.338Z,13.60
2022-09-11T22:58:14.058Z,13.60
2022-09-11T23:00:18.899Z,13.50
2022-09-11T23:02:22.003Z,13.50
2022-09-11T23:04:24.681Z,13.50
2022-09-11T23:06:44.697Z,13.50
2022-09-11T23:08:48.020Z,13.50
2022-09-11T23:10:52.068Z,13.40
2022-09-11T23:12:54.875Z,13.40
2022-09-11T23:14:58.087Z,13.40
2022-09-11T23:17:00.853Z,13.30
2022-09-11T23:19:05.089Z,13.40
2022-09-11T23:21:08.008Z,13.30
2022-09-11T23:23:11.036Z,13.30
2022-09-11T23:25:13.985Z,13.30
2022-09-11T23:27:17.984Z,13.40
2022-09-11T23:29:20.668Z,13.40
2022-09-11T23:31:25.047Z,13.40
2022-09-11T23:33:28.637Z,13.30
2022-09-11T23:35:31.296Z,13.30
2022-09-11T23:37:34.665Z,13.30
2022-09-11T23:39:37.388Z,13.20
2022-09-11T23:41:40.096Z,13.20
2022-09-11T23:43:44.304Z,13.20
2022-09-11T23:45:47.082Z,13.10
2022-09-11T23:47:50.786Z,13.10
2022-09-11T23:49:54.193Z,13.10
2022-09-11T23:51:56.859Z,13.00
2022-09-11T23:53:59.535Z,13.00
2022-09-11T23:56:02.496Z,13.00
2022-09-11T23:58:05.242Z,13.00
